Time;durP1;ratioP1;P1;durP2;ratioP2;P2;SDS_P1;SDS_P2;PMS_P1;PMS_P2;Temp;Humidity;BMP_temperature;BMP_pressure;BME280_temperature;BME280_humidity;BME280_pressure;Samples;Min_cycle;Max_cycle;Signal;HPM_P1;HPM_P2
2021/09/19 00:02:17;;;;;;;58.57;41.50;;;17.60;99.90;;;;;;5073860;28;20179;-76
2021/09/19 00:04:43;;;;;;;57.00;41.00;;;17.70;99.90;;;;;;5091299;28;20198;-78
2021/09/19 00:07:09;;;;;;;54.53;40.73;;;17.70;99.90;;;;;;5093099;28;20192;-78
2021/09/19 00:09:34;;;;;;;58.87;41.20;;;17.70;99.90;;;;;;5095200;28;20280;-78
2021/09/19 00:12:00;;;;;;;57.70;41.63;;;17.70;99.90;;;;;;5093677;28;20187;-78
2021/09/19 00:14:26;;;;;;;60.23;40.90;;;17.80;99.90;;;;;;5072227;28;20296;-77
2021/09/19 00:16:52;;;;;;;57.00;41.03;;;17.80;99.90;;;;;;5092901;28;20199;-76
2021/09/19 00:19:19;;;;;;;59.13;41.40;;;17.80;99.90;;;;;;5092698;28;20178;-76
2021/09/19 00:21:45;;;;;;;54.67;41.00;;;17.90;99.90;;;;;;5059847;28;20187;-76
2021/09/19 00:24:11;;;;;;;59.47;42.57;;;17.80;99.90;;;;;;5087513;28;20248;-76
2021/09/19 00:26:37;;;;;;;53.03;39.37;;;17.80;99.90;;;;;;5092200;28;20183;-77
2021/09/19 00:29:03;;;;;;;55.63;40.90;;;17.80;99.90;;;;;;5064634;28;20663;-76
2021/09/19 00:31:30;;;;;;;58.13;41.43;;;17.80;99.90;;;;;;5090054;28;20493;-76
2021/09/19 00:33:56;;;;;;;59.87;41.37;;;17.80;99.90;;;;;;5074321;28;20181;-76
2021/09/19 00:36:22;;;;;;;57.33;41.60;;;17.80;99.90;;;;;;5094695;28;20210;-76
2021/09/19 00:38:47;;;;;;;56.50;40.67;;;17.80;99.90;;;;;;5057654;28;20194;-76
2021/09/19 00:41:13;;;;;;;57.90;41.97;;;17.70;99.90;;;;;;5083705;28;20188;-76
2021/09/19 00:43:39;;;;;;;56.50;39.70;;;17.70;99.90;;;;;;5070122;28;20202;-76
2021/09/19 00:46:05;;;;;;;57.00;40.93;;;17.70;99.90;;;;;;5057700;28;20215;-76
2021/09/19 00:48:30;;;;;;;53.83;39.40;;;17.70;99.90;;;;;;5090422;28;20184;-75
2021/09/19 00:50:56;;;;;;;56.63;40.80;;;17.70;99.90;;;;;;5089457;28;20243;-76
2021/09/19 00:53:22;;;;;;;55.60;39.73;;;17.70;99.90;;;;;;5084887;28;20657;-76
2021/09/19 00:55:49;;;;;;;54.83;39.73;;;17.70;99.90;;;;;;5072103;28;20213;-76
2021/09/19 00:58:18;;;;;;;58.40;41.43;;;17.70;99.90;;;;;;5055565;28;20204;-76
2021/09/19 01:00:49;;;;;;;62.13;43.47;;;17.70;99.90;;;;;;5076424;28;20187;-76
2021/09/19 01:03:16;;;;;;;56.43;41.20;;;17.80;99.90;;;;;;5074462;28;20703;-76
2021/09/19 01:05:43;;;;;;;58.67;41.87;;;17.70;99.90;;;;;;5075953;28;20183;-76
2021/09/19 01:08:10;;;;;;;58.30;41.30;;;17.70;99.90;;;;;;5085550;28;20275;-76
2021/09/19 01:10:36;;;;;;;57.97;41.73;;;17.60;99.90;;;;;;5083863;28;20206;-76
2021/09/19 01:13:03;;;;;;;62.00;43.13;;;17.60;99.90;;;;;;5091983;28;20599;-76
2021/09/19 01:15:29;;;;;;;58.87;42.93;;;17.60;99.90;;;;;;5075148;28;20332;-76
2021/09/19 01:17:59;;;;;;;62.60;43.70;;;17.60;99.90;;;;;;5069306;28;20188;-76
2021/09/19 01:20:26;;;;;;;61.13;42.50;;;17.50;99.90;;;;;;5072025;28;20178;-76
2021/09/19 01:23:09;;;;;;;57.87;40.77;;;17.50;99.90;;;;;;5087614;28;20168;-76
2021/09/19 01:25:36;;;;;;;60.30;42.27;;;17.40;99.90;;;;;;5073783;28;20193;-76
2021/09/19 01:28:03;;;;;;;57.27;39.87;;;17.40;99.90;;;;;;5075932;28;20198;-77
2021/09/19 01:30:29;;;;;;;59.40;41.63;;;17.30;99.90;;;;;;5055382;28;20190;-76
2021/09/19 01:32:55;;;;;;;62.60;43.83;;;17.30;99.90;;;;;;5071751;28;20605;-76
2021/09/19 01:35:21;;;;;;;57.57;41.00;;;17.40;99.90;;;;;;5072071;28;20260;-76
2021/09/19 01:37:47;;;;;;;62.60;42.77;;;17.40;99.90;;;;;;5090793;28;20710;-75
2021/09/19 01:40:14;;;;;;;61.23;41.43;;;17.50;99.90;;;;;;5056461;28;20182;-76
2021/09/19 01:42:40;;;;;;;61.00;41.83;;;17.40;99.90;;;;;;5076853;28;20194;-76
2021/09/19 01:45:08;;;;;;;57.37;41.03;;;17.40;99.90;;;;;;5070369;28;20189;-76
2021/09/19 01:47:33;;;;;;;60.37;41.03;;;17.40;99.90;;;;;;5059937;28;20190;-76
2021/09/19 01:49:59;;;;;;;63.63;42.87;;;17.50;99.90;;;;;;5076765;28;20187;-76
2021/09/19 01:52:25;;;;;;;57.87;41.20;;;17.60;99.90;;;;;;5069704;28;20544;-76
2021/09/19 01:54:51;;;;;;;61.73;41.83;;;17.50;99.90;;;;;;5089958;28;20206;-76
2021/09/19 01:57:22;;;;;;;54.20;40.27;;;17.50;99.90;;;;;;5094090;28;20231;-76
2021/09/19 01:59:49;;;;;;;53.23;39.67;;;17.40;99.90;;;;;;5073782;28;20267;-76
2021/09/19 02:02:16;;;;;;;55.43;39.20;;;17.40;99.90;;;;;;5092565;28;20270;-77
2021/09/19 02:04:41;;;;;;;57.80;40.17;;;17.40;99.90;;;;;;5091596;28;20214;-77
2021/09/19 02:07:07;;;;;;;59.07;41.47;;;17.30;99.90;;;;;;5093907;28;20179;-76
2021/09/19 02:09:33;;;;;;;58.00;41.40;;;17.30;99.90;;;;;;5084784;28;20194;-77
2021/09/19 02:11:59;;;;;;;60.13;41.13;;;17.30;99.90;;;;;;5074652;28;20207;-77
2021/09/19 02:14:25;;;;;;;60.70;42.47;;;17.30;99.90;;;;;;5075781;28;20676;-76
2021/09/19 02:16:51;;;;;;;56.50;41.30;;;17.30;99.90;;;;;;5090970;28;20186;-77
2021/09/19 02:19:18;;;;;;;62.13;41.53;;;17.30;99.90;;;;;;5096533;28;20178;-77
2021/09/19 02:21:44;;;;;;;55.43;40.97;;;17.30;99.90;;;;;;5091765;28;20923;-77
2021/09/19 02:24:10;;;;;;;60.97;42.40;;;17.30;99.90;;;;;;5090841;28;20187;-77
2021/09/19 02:26:36;;;;;;;59.63;42.57;;;17.30;99.90;;;;;;5074988;28;20554;-76
2021/09/19 02:29:02;;;;;;;60.10;42.60;;;17.30;99.90;;;;;;5070757;28;20240;-77
2021/09/19 02:31:28;;;;;;;64.00;43.30;;;17.50;99.90;;;;;;5080039;28;20657;-77
2021/09/19 02:33:54;;;;;;;62.77;44.47;;;17.60;99.90;;;;;;5094301;28;20190;-77
2021/09/19 02:36:20;;;;;;;58.60;42.77;;;17.60;99.90;;;;;;5079435;28;20566;-77
2021/09/19 02:38:46;;;;;;;60.43;40.17;;;17.50;99.90;;;;;;5077257;28;20601;-77
2021/09/19 02:41:11;;;;;;;57.23;41.60;;;17.40;99.90;;;;;;5078585;28;20637;-77
2021/09/19 02:43:37;;;;;;;62.37;41.73;;;17.30;99.90;;;;;;5061609;28;20191;-76
2021/09/19 02:46:03;;;;;;;63.53;43.83;;;17.30;99.90;;;;;;5077298;28;20689;-77
2021/09/19 02:48:29;;;;;;;60.43;41.70;;;17.10;99.90;;;;;;5088939;28;20179;-77
2021/09/19 02:50:55;;;;;;;60.90;42.77;;;17.10;99.90;;;;;;5061352;28;20661;-77
2021/09/19 02:53:21;;;;;;;67.27;45.10;;;17.00;99.90;;;;;;5072823;28;20186;-77
2021/09/19 02:55:47;;;;;;;57.83;41.93;;;17.00;99.90;;;;;;5062476;28;20262;-77
2021/09/19 02:58:13;;;;;;;56.33;40.30;;;17.00;99.90;;;;;;5093774;28;20203;-77
2021/09/19 03:00:38;;;;;;;59.33;41.47;;;16.90;99.90;;;;;;5092828;28;20179;-77
2021/09/19 03:03:04;;;;;;;63.90;43.90;;;16.90;99.90;;;;;;5092605;28;20636;-77
2021/09/19 03:05:30;;;;;;;64.07;43.73;;;16.80;99.90;;;;;;5092332;28;20324;-77
2021/09/19 03:07:56;;;;;;;64.30;44.47;;;16.90;99.90;;;;;;5074695;28;20215;-77
2021/09/19 03:10:23;;;;;;;64.33;42.97;;;16.90;99.90;;;;;;5097576;28;20193;-77
2021/09/19 03:12:49;;;;;;;60.80;42.17;;;16.80;99.90;;;;;;5098527;28;20176;-77
2021/09/19 03:15:15;;;;;;;58.97;42.67;;;16.80;99.90;;;;;;5095076;28;20210;-77
2021/09/19 03:17:41;;;;;;;67.80;44.67;;;16.70;99.90;;;;;;5068575;28;20197;-77
2021/09/19 03:20:09;;;;;;;60.03;42.17;;;16.60;99.90;;;;;;5097226;28;20193;-77
2021/09/19 03:22:36;;;;;;;58.77;40.20;;;16.60;99.90;;;;;;5057885;28;20175;-77
2021/09/19 03:25:03;;;;;;;57.83;40.57;;;16.60;99.90;;;;;;5098811;28;20195;-77
2021/09/19 03:27:30;;;;;;;60.80;41.60;;;16.60;99.90;;;;;;5079272;28;20686;-77
2021/09/19 03:29:57;;;;;;;56.33;39.77;;;16.50;99.90;;;;;;5092874;28;20183;-77
2021/09/19 03:32:22;;;;;;;56.03;39.27;;;16.40;99.90;;;;;;5079369;28;20550;-77
2021/09/19 03:34:48;;;;;;;58.47;39.97;;;16.40;99.90;;;;;;5086453;28;20210;-77
2021/09/19 03:37:14;;;;;;;54.60;37.87;;;16.30;99.90;;;;;;5088058;28;20695;-76
2021/09/19 03:39:40;;;;;;;53.80;38.30;;;16.20;99.90;;;;;;5090123;28;20185;-76
2021/09/19 03:42:06;;;;;;;68.13;44.57;;;16.20;99.90;;;;;;5093689;28;20174;-76
2021/09/19 03:44:32;;;;;;;70.00;46.27;;;16.20;99.90;;;;;;5073825;28;20182;-76
2021/09/19 03:46:57;;;;;;;63.90;42.47;;;16.30;99.90;;;;;;5089758;28;20192;-76
2021/09/19 03:49:24;;;;;;;67.13;44.83;;;16.30;99.90;;;;;;5088879;28;20682;-76
2021/09/19 03:51:50;;;;;;;64.67;43.47;;;16.30;99.90;;;;;;5089336;28;20206;-77
2021/09/19 03:54:16;;;;;;;64.37;43.93;;;16.30;99.90;;;;;;5085986;28;20241;-76
2021/09/19 03:56:42;;;;;;;58.77;41.47;;;16.20;99.90;;;;;;5077345;28;20211;-77
2021/09/19 03:59:07;;;;;;;59.57;41.90;;;16.20;99.90;;;;;;5072053;28;20167;-76
2021/09/19 04:01:33;;;;;;;61.63;41.97;;;16.10;99.90;;;;;;5084779;28;20740;-76
2021/09/19 04:03:59;;;;;;;62.33;43.13;;;16.10;99.90;;;;;;5095090;28;20190;-76
2021/09/19 04:06:25;;;;;;;68.87;44.27;;;16.10;99.90;;;;;;5091665;28;20188;-76
2021/09/19 04:08:50;;;;;;;62.43;42.93;;;16.10;99.90;;;;;;5058942;28;20683;-76
2021/09/19 04:11:16;;;;;;;64.17;42.77;;;16.00;99.90;;;;;;5087532;28;20189;-76
2021/09/19 04:13:42;;;;;;;60.73;41.27;;;16.00;99.90;;;;;;5094898;28;20568;-76
2021/09/19 04:16:07;;;;;;;61.50;41.60;;;16.10;99.90;;;;;;5076002;28;20210;-76
2021/09/19 04:18:33;;;;;;;59.97;40.70;;;16.00;99.90;;;;;;5069488;28;20182;-76
2021/09/19 04:20:59;;;;;;;61.43;41.47;;;16.00;99.90;;;;;;5092154;28;20206;-76
2021/09/19 04:23:25;;;;;;;65.80;43.00;;;16.00;99.90;;;;;;5091864;28;20228;-76
2021/09/19 04:25:51;;;;;;;50.97;35.97;;;16.00;99.90;;;;;;5089439;28;20194;-76
2021/09/19 04:28:18;;;;;;;52.73;37.07;;;15.90;99.90;;;;;;5074609;28;20197;-76
2021/09/19 04:30:43;;;;;;;54.10;37.97;;;15.80;99.90;;;;;;5071806;28;20565;-76
2021/09/19 04:33:09;;;;;;;59.53;40.53;;;15.70;99.90;;;;;;5085723;28;20289;-76
2021/09/19 04:35:35;;;;;;;62.47;41.87;;;15.70;99.90;;;;;;5092950;28;20238;-76
2021/09/19 04:38:01;;;;;;;61.67;41.20;;;15.80;99.90;;;;;;5074001;28;20864;-77
2021/09/19 04:40:28;;;;;;;62.93;41.07;;;15.80;99.90;;;;;;5058879;28;20579;-76
2021/09/19 04:42:54;;;;;;;55.17;38.10;;;15.80;99.90;;;;;;5089745;28;20703;-77
2021/09/19 04:45:20;;;;;;;56.67;38.07;;;15.80;99.90;;;;;;5077634;28;20245;-77
2021/09/19 04:47:46;;;;;;;63.07;39.83;;;15.80;99.90;;;;;;5070232;28;20542;-77
2021/09/19 04:50:11;;;;;;;65.37;42.47;;;15.70;99.90;;;;;;5088993;28;20239;-76
2021/09/19 04:52:37;;;;;;;57.33;38.67;;;15.80;99.90;;;;;;5076064;28;20185;-76
2021/09/19 04:55:04;;;;;;;56.80;39.07;;;15.70;99.90;;;;;;5077512;28;20612;-76
2021/09/19 04:57:30;;;;;;;60.10;38.73;;;15.60;99.90;;;;;;5090683;28;20652;-76
2021/09/19 04:59:56;;;;;;;62.40;41.10;;;15.60;99.90;;;;;;5071248;28;20200;-77
2021/09/19 05:02:21;;;;;;;58.00;38.57;;;15.60;99.90;;;;;;5087902;28;20180;-76
2021/09/19 05:04:47;;;;;;;58.37;39.30;;;15.60;99.90;;;;;;5090908;28;20644;-77
2021/09/19 05:07:13;;;;;;;56.97;38.23;;;15.60;99.90;;;;;;5086522;28;20189;-83
2021/09/19 05:09:40;;;;;;;55.20;38.10;;;15.60;99.90;;;;;;5074148;28;20205;-85
2021/09/19 05:12:06;;;;;;;63.00;43.23;;;15.50;99.90;;;;;;5072573;28;20186;-83
2021/09/19 05:14:32;;;;;;;64.77;43.23;;;15.50;99.90;;;;;;5089463;28;20288;-84
2021/09/19 05:16:58;;;;;;;63.60;42.30;;;15.60;99.90;;;;;;5074540;28;20199;-83
2021/09/19 05:19:24;;;;;;;63.93;42.97;;;15.60;99.90;;;;;;5072941;28;20254;-76
2021/09/19 05:21:50;;;;;;;64.23;42.80;;;15.60;99.90;;;;;;5089114;28;20221;-76
2021/09/19 05:24:15;;;;;;;60.93;41.10;;;15.60;99.90;;;;;;5078680;28;20573;-76
2021/09/19 05:26:41;;;;;;;53.87;36.93;;;15.70;99.90;;;;;;5092742;28;20200;-76
2021/09/19 05:29:07;;;;;;;52.07;35.90;;;15.70;99.90;;;;;;5076615;28;20175;-76
2021/09/19 05:31:33;;;;;;;55.33;37.13;;;15.60;99.90;;;;;;5085807;28;20209;-76
2021/09/19 05:33:58;;;;;;;55.50;36.57;;;15.60;99.90;;;;;;5088002;28;20202;-76
2021/09/19 05:36:25;;;;;;;56.83;39.63;;;15.60;99.90;;;;;;5073320;28;20197;-81
2021/09/19 05:38:51;;;;;;;57.20;38.23;;;15.60;99.90;;;;;;5076150;28;20225;-75
2021/09/19 05:41:17;;;;;;;53.03;36.67;;;15.60;99.90;;;;;;5096601;28;20705;-76
2021/09/19 05:43:42;;;;;;;53.40;37.03;;;15.70;99.90;;;;;;5072064;28;20230;-78
2021/09/19 05:46:08;;;;;;;53.87;36.50;;;15.70;99.90;;;;;;5088147;28;20186;-76
2021/09/19 05:48:34;;;;;;;53.17;36.67;;;15.70;99.90;;;;;;5090879;28;20196;-81
2021/09/19 05:51:00;;;;;;;54.20;38.43;;;15.80;99.90;;;;;;5073314;28;20185;-83
2021/09/19 05:53:26;;;;;;;61.30;40.83;;;15.80;99.90;;;;;;5074212;28;20237;-81
2021/09/19 05:55:52;;;;;;;62.33;40.27;;;15.90;99.90;;;;;;5090538;28;20216;-81
2021/09/19 05:58:18;;;;;;;59.27;40.10;;;16.00;99.90;;;;;;5058453;28;20265;-76
2021/09/19 06:00:43;;;;;;;56.83;38.97;;;16.10;99.90;;;;;;5072235;28;20200;-76
2021/09/19 06:03:09;;;;;;;57.80;38.93;;;16.00;99.90;;;;;;5085372;28;20189;-76
2021/09/19 06:05:35;;;;;;;51.40;35.13;;;16.00;99.90;;;;;;5088185;28;20569;-76
2021/09/19 06:08:01;;;;;;;51.07;35.57;;;16.00;99.90;;;;;;5087889;28;20274;-77
2021/09/19 06:10:26;;;;;;;58.20;38.33;;;16.00;99.90;;;;;;5092880;28;20268;-77
2021/09/19 06:12:52;;;;;;;53.20;35.90;;;16.00;99.90;;;;;;5075230;28;20186;-83
2021/09/19 06:15:18;;;;;;;51.93;35.70;;;16.00;99.90;;;;;;5095011;28;20238;-83
2021/09/19 06:17:44;;;;;;;57.20;38.30;;;16.10;99.90;;;;;;5089523;28;20265;-82
2021/09/19 06:20:09;;;;;;;53.03;36.07;;;16.20;99.90;;;;;;5095861;28;20196;-82
2021/09/19 06:22:35;;;;;;;52.40;36.07;;;16.30;99.90;;;;;;5073035;28;20179;-82
2021/09/19 06:25:01;;;;;;;48.23;32.87;;;16.30;99.90;;;;;;5071998;28;20205;-82
2021/09/19 06:27:27;;;;;;;45.00;33.97;;;16.30;99.90;;;;;;5072992;28;20662;-82
2021/09/19 06:29:52;;;;;;;45.17;32.50;;;16.30;99.90;;;;;;5073119;28;20190;-82
2021/09/19 06:32:18;;;;;;;46.30;32.93;;;16.40;99.90;;;;;;5080010;28;20219;-82
2021/09/19 06:34:44;;;;;;;50.80;35.27;;;16.40;99.90;;;;;;5074631;28;20205;-82
2021/09/19 06:37:10;;;;;;;49.63;33.67;;;16.50;99.90;;;;;;5083698;28;20178;-82
2021/09/19 06:39:36;;;;;;;46.57;33.53;;;16.70;99.90;;;;;;5076449;28;20701;-82
2021/09/19 06:42:02;;;;;;;45.77;32.87;;;16.90;99.90;;;;;;5057888;28;20184;-82
2021/09/19 06:44:27;;;;;;;42.53;31.17;;;17.20;99.90;;;;;;5072785;28;20218;-82
2021/09/19 06:46:56;;;;;;;41.80;31.53;;;17.70;99.90;;;;;;5069089;28;20602;-82
2021/09/19 06:49:23;;;;;;;37.97;28.83;;;18.20;99.90;;;;;;5083532;28;20186;-83
2021/09/19 06:51:49;;;;;;;45.07;31.90;;;18.70;99.90;;;;;;5057431;28;20275;-83
2021/09/19 06:54:15;;;;;;;40.60;30.00;;;19.00;99.90;;;;;;5083668;28;20603;-84
2021/09/19 06:56:41;;;;;;;41.13;29.23;;;19.20;99.90;;;;;;5094868;28;20173;-83
2021/09/19 06:59:07;;;;;;;40.57;29.73;;;19.40;99.90;;;;;;5066521;28;20180;-84
2021/09/19 07:01:33;;;;;;;41.17;30.87;;;19.40;99.90;;;;;;5065066;28;20243;-83
2021/09/19 07:03:58;;;;;;;41.67;31.60;;;19.40;99.90;;;;;;5090032;28;20238;-84
2021/09/19 07:06:24;;;;;;;42.30;31.43;;;19.30;99.90;;;;;;5099142;28;20189;-84
2021/09/19 07:08:50;;;;;;;41.03;31.60;;;19.30;99.90;;;;;;5075329;28;20783;-83
2021/09/19 07:11:16;;;;;;;41.37;31.60;;;19.20;99.90;;;;;;5091778;28;20183;-83
2021/09/19 07:13:42;;;;;;;41.20;31.37;;;19.10;99.90;;;;;;5093305;28;20273;-76
2021/09/19 07:16:08;;;;;;;45.20;31.73;;;19.10;99.90;;;;;;5089668;28;20285;-76
2021/09/19 07:18:34;;;;;;;41.93;31.33;;;19.00;99.90;;;;;;5088530;28;20185;-75
2021/09/19 07:21:00;;;;;;;39.53;31.27;;;18.90;99.90;;;;;;5089359;28;20193;-75
2021/09/19 07:23:26;;;;;;;40.97;31.60;;;18.90;99.90;;;;;;5087340;28;20178;-75
2021/09/19 07:25:52;;;;;;;39.00;28.93;;;19.20;99.90;;;;;;5092447;28;20220;-75
2021/09/19 07:28:19;;;;;;;35.57;27.60;;;20.00;99.90;;;;;;5072839;28;20588;-75
2021/09/19 07:30:45;;;;;;;34.57;26.77;;;21.70;99.90;;;;;;5083366;28;20175;-75
2021/09/19 07:33:11;;;;;;;34.17;25.37;;;23.50;99.90;;;;;;5086295;28;20197;-76
2021/09/19 07:35:36;;;;;;;31.73;25.80;;;24.70;99.90;;;;;;5069000;28;20190;-78
2021/09/19 07:38:03;;;;;;;30.40;24.10;;;25.70;99.90;;;;;;5071127;28;20174;-75
2021/09/19 07:40:30;;;;;;;29.03;24.20;;;26.20;99.90;;;;;;5067001;28;20206;-76
2021/09/19 07:42:59;;;;;;;28.30;22.63;;;26.60;99.90;;;;;;5085609;28;20182;-75
2021/09/19 07:45:28;;;;;;;30.17;23.83;;;27.00;99.90;;;;;;5090254;28;20183;-76
2021/09/19 07:47:54;;;;;;;26.67;22.40;;;27.30;99.90;;;;;;5087567;28;20191;-77
2021/09/19 07:50:20;;;;;;;31.20;23.38;;;27.20;99.90;;;;;;5086744;28;20236;-76
2021/09/19 07:52:47;;;;;;;30.27;23.92;;;27.20;99.90;;;;;;5086465;28;20278;-75
2021/09/19 07:55:15;;;;;;;29.52;23.52;;;27.50;99.90;;;;;;5085852;28;20230;-76
2021/09/19 07:57:41;;;;;;;24.75;21.48;;;28.00;99.90;;;;;;5072141;28;20198;-76
2021/09/19 08:00:08;;;;;;;26.35;22.20;;;28.60;99.90;;;;;;5064424;28;20195;-76
2021/09/19 08:02:39;;;;;;;24.55;19.90;;;29.50;99.90;;;;;;5087378;28;20680;-76
2021/09/19 08:05:05;;;;;;;24.88;20.45;;;29.70;99.90;;;;;;5082686;28;20198;-76
2021/09/19 08:07:31;;;;;;;24.23;20.30;;;29.70;99.90;;;;;;5083564;28;20243;-76
2021/09/19 08:09:57;;;;;;;25.77;18.67;;;30.30;99.90;;;;;;5089125;28;20548;-76
2021/09/19 08:12:22;;;;;;;22.17;18.15;;;30.70;99.90;;;;;;5084310;28;20187;-85
2021/09/19 08:14:48;;;;;;;20.52;15.57;;;30.50;99.90;;;;;;5092953;28;20202;-85
2021/09/19 08:17:14;;;;;;;20.50;15.38;;;29.70;99.90;;;;;;5089189;28;20694;-76
2021/09/19 08:19:39;;;;;;;22.52;15.45;;;29.10;99.90;;;;;;5074664;28;20184;-76
2021/09/19 08:22:05;;;;;;;24.35;19.58;;;28.10;99.90;;;;;;5088215;28;20191;-76
2021/09/19 08:24:31;;;;;;;19.98;15.60;;;27.60;99.90;;;;;;5063669;28;20202;-76
2021/09/19 08:26:56;;;;;;;17.42;13.70;;;27.20;99.90;;;;;;5088561;28;20266;-76
2021/09/19 08:29:22;;;;;;;17.08;14.00;;;27.10;99.90;;;;;;5089271;28;20216;-76
2021/09/19 08:31:49;;;;;;;16.58;13.27;;;27.10;99.90;;;;;;5088331;28;20646;-74
2021/09/19 08:34:15;;;;;;;20.55;14.95;;;27.10;99.90;;;;;;5090806;28;20649;-76
2021/09/19 08:36:41;;;;;;;17.55;12.75;;;27.10;99.90;;;;;;5105406;28;20205;-85
2021/09/19 08:39:08;;;;;;;18.70;12.55;;;27.80;99.90;;;;;;5093581;28;20191;-85
2021/09/19 08:41:35;;;;;;;17.40;12.40;;;28.10;99.90;;;;;;5088458;28;20200;-84
2021/09/19 08:44:02;;;;;;;16.90;12.35;;;27.90;99.90;;;;;;5091689;28;20270;-75
2021/09/19 08:46:29;;;;;;;15.52;12.07;;;28.00;99.90;;;;;;5068046;28;20640;-76
2021/09/19 08:48:55;;;;;;;14.15;11.00;;;27.90;99.90;;;;;;5085345;28;20202;-75
2021/09/19 08:51:20;;;;;;;15.30;10.00;;;27.90;99.90;;;;;;5085978;28;20637;-75
2021/09/19 08:53:46;;;;;;;13.50;10.00;;;27.70;99.90;;;;;;5087976;28;20171;-75
2021/09/19 08:56:12;;;;;;;14.55;10.50;;;27.30;99.90;;;;;;5087319;28;20199;-75
2021/09/19 08:58:38;;;;;;;14.10;9.88;;;27.10;99.90;;;;;;5085352;28;20179;-76
2021/09/19 09:01:05;;;;;;;13.18;8.80;;;26.90;99.90;;;;;;5085115;28;20736;-76
2021/09/19 09:03:31;;;;;;;14.75;9.13;;;26.60;99.90;;;;;;5071587;28;20186;-76
2021/09/19 09:06:02;;;;;;;13.00;9.13;;;25.90;99.90;;;;;;5082788;28;20271;-85
2021/09/19 09:08:30;;;;;;;12.90;9.57;;;25.50;99.90;;;;;;5080772;28;20256;-85
2021/09/19 09:10:59;;;;;;;14.02;9.50;;;25.00;99.90;;;;;;5053201;28;20187;-84
2021/09/19 09:13:33;;;;;;;13.77;9.00;;;24.70;99.90;;;;;;5068295;28;20188;-85
2021/09/19 09:16:17;;;;;;;15.67;9.63;;;24.60;99.90;;;;;;5054891;28;20668;-84
2021/09/19 09:18:52;;;;;;;13.93;8.87;;;24.20;99.90;;;;;;5062445;28;20219;-84
2021/09/19 09:21:23;;;;;;;12.47;9.20;;;23.80;99.90;;;;;;5074358;28;20227;-84
2021/09/19 09:23:53;;;;;;;12.67;8.50;;;23.70;99.90;;;;;;5072306;28;20179;-84
2021/09/19 09:26:33;;;;;;;13.30;8.97;;;23.50;99.90;;;;;;5077757;28;20179;-86
2021/09/19 09:29:08;;;;;;;11.63;8.10;;;23.40;99.90;;;;;;5052576;28;20193;-84
2021/09/19 09:31:37;;;;;;;11.93;8.17;;;23.30;99.90;;;;;;5079189;28;20226;-85
2021/09/19 09:34:08;;;;;;;13.93;8.60;;;23.20;99.90;;;;;;5068907;28;20191;-86
2021/09/19 09:37:05;;;;;;;10.57;7.33;;;23.30;99.90;;;;;;5075459;28;20179;-84
2021/09/19 09:39:39;;;;;;;9.83;6.83;;;23.30;99.90;;;;;;5055526;28;20203;-84
2021/09/19 09:42:16;;;;;;;17.00;13.63;;;23.60;99.90;;;;;;5068461;28;20180;-85
2021/09/19 09:44:43;;;;;;;16.93;7.53;;;24.00;99.90;;;;;;5036873;28;20187;-85
2021/09/19 09:47:13;;;;;;;11.37;6.80;;;24.30;99.90;;;;;;5075690;28;20182;-85
2021/09/19 09:49:48;;;;;;;52.87;39.70;;;24.90;99.90;;;;;;5073542;28;20280;-85
2021/09/19 09:52:21;;;;;;;15.00;11.13;;;25.50;99.90;;;;;;5062780;28;20664;-86
2021/09/19 09:54:54;;;;;;;11.32;7.22;;;26.30;99.90;;;;;;5051664;28;20203;-86
2021/09/19 09:57:58;;;;;;;9.27;6.20;;;26.90;99.90;;;;;;5060768;28;20245;-85
2021/09/19 10:00:24;;;;;;;9.38;6.15;;;27.30;99.90;;;;;;5075394;28;20270;-76
2021/09/19 10:02:51;;;;;;;9.00;5.47;;;27.10;99.90;;;;;;5081515;28;20245;-85
2021/09/19 10:05:19;;;;;;;8.70;5.22;;;27.30;99.90;;;;;;5057050;28;20233;-86
2021/09/19 10:07:47;;;;;;;10.63;6.10;;;27.70;99.90;;;;;;5071189;28;20221;-85
2021/09/19 10:10:24;;;;;;;8.98;5.25;;;27.90;99.90;;;;;;5076735;28;20183;-76
2021/09/19 10:12:51;;;;;;;8.77;5.88;;;27.70;99.90;;;;;;5069791;28;20202;-85
2021/09/19 10:15:18;;;;;;;10.10;5.45;;;27.30;99.90;;;;;;5079923;28;20217;-83
2021/09/19 10:17:44;;;;;;;8.48;5.57;;;26.90;99.90;;;;;;5089662;28;20239;-83
2021/09/19 10:20:22;;;;;;;10.05;5.45;;;26.60;99.90;;;;;;5098582;28;20206;-84
2021/09/19 10:22:53;;;;;;;9.02;4.93;;;26.70;99.90;;;;;;5077873;28;20187;-85
2021/09/19 10:25:25;;;;;;;9.30;4.68;;;26.70;99.90;;;;;;5092877;28;20179;-85
2021/09/19 10:28:12;;;;;;;8.18;4.70;;;26.70;99.90;;;;;;5077520;28;20665;-74
2021/09/19 10:30:37;;;;;;;6.93;4.50;;;26.40;99.90;;;;;;5074844;28;20241;-75
2021/09/19 10:33:33;;;;;;;7.30;4.65;;;26.50;99.90;;;;;;5060131;28;20652;-83
2021/09/19 10:36:00;;;;;;;9.10;5.18;;;26.40;99.90;;;;;;5093083;28;20222;-84
2021/09/19 10:38:37;;;;;;;7.82;4.07;;;26.50;99.90;;;;;;5090503;28;20171;-83
2021/09/19 10:41:14;;;;;;;7.05;4.22;;;26.50;99.90;;;;;;5092293;28;20668;-75
2021/09/19 10:43:53;;;;;;;7.18;4.53;;;26.40;99.90;;;;;;5069554;28;20706;-75
2021/09/19 10:46:36;;;;;;;8.60;4.50;;;26.30;99.90;;;;;;5096792;28;20253;-84
2021/09/19 10:49:19;;;;;;;9.35;4.95;;;26.30;99.90;;;;;;5094473;28;20221;-84
2021/09/19 10:52:11;;;;;;;8.00;4.82;;;26.60;99.90;;;;;;5094340;28;20195;-84
2021/09/19 10:54:50;;;;;;;6.80;4.38;;;26.80;99.90;;;;;;5086261;28;20296;-84
2021/09/19 10:57:37;;;;;;;8.38;5.00;;;26.90;99.90;;;;;;5073506;28;20180;-84
2021/09/19 11:00:12;;;;;;;7.90;5.13;;;26.90;99.90;;;;;;5091840;28;20244;-84
2021/09/19 11:02:40;;;;;;;7.50;5.00;;;26.80;99.90;;;;;;5086621;28;20589;-84
2021/09/19 11:05:27;;;;;;;7.65;4.75;;;26.70;99.90;;;;;;5093169;28;20187;-84
2021/09/19 11:08:16;;;;;;;40.10;29.52;;;26.50;99.90;;;;;;5089348;28;20241;-84
2021/09/19 11:10:45;;;;;;;9.27;4.95;;;26.30;99.90;;;;;;5067244;28;20397;-85
2021/09/19 11:13:53;;;;;;;8.18;4.88;;;26.20;99.90;;;;;;5078120;28;20179;-86
2021/09/19 11:16:21;;;;;;;7.25;4.85;;;26.20;99.90;;;;;;4972306;28;20206;-86
2021/09/19 11:18:51;;;;;;;7.97;5.30;;;25.80;99.90;;;;;;5072763;28;20192;-86
2021/09/19 11:21:19;;;;;;;8.07;5.18;;;25.50;99.90;;;;;;5080508;28;20212;-86
2021/09/19 11:23:53;;;;;;;8.32;4.47;;;25.30;99.90;;;;;;5089634;28;20644;-86
2021/09/19 11:26:47;;;;;;;9.07;5.03;;;25.20;99.90;;;;;;5072863;28;20377;-85
2021/09/19 11:29:25;;;;;;;8.73;5.07;;;25.10;99.90;;;;;;5086774;28;20202;-86
2021/09/19 11:31:53;;;;;;;8.50;5.20;;;25.20;99.90;;;;;;5073764;28;20214;-86
2021/09/19 11:34:21;;;;;;;9.10;5.00;;;25.20;99.90;;;;;;5089583;28;20232;-86
2021/09/19 11:36:50;;;;;;;8.93;5.40;;;25.10;99.90;;;;;;5092770;28;20263;-86
2021/09/19 11:39:16;;;;;;;7.20;4.80;;;25.00;99.90;;;;;;5075865;28;20175;-88
2021/09/19 11:41:44;;;;;;;8.90;5.23;;;25.20;99.90;;;;;;5092843;28;20199;-87
2021/09/19 11:44:12;;;;;;;8.63;5.37;;;25.40;99.90;;;;;;5093040;28;20268;-87
2021/09/19 11:46:45;;;;;;;7.60;5.07;;;25.70;99.90;;;;;;5091038;28;20653;-88
2021/09/19 11:49:12;;;;;;;9.20;5.65;;;26.10;99.90;;;;;;5086198;28;20683;-85
2021/09/19 11:51:40;;;;;;;9.25;5.78;;;26.20;99.90;;;;;;5090173;28;20207;-87
2021/09/19 11:54:06;;;;;;;8.40;5.60;;;26.40;99.90;;;;;;5071010;28;20194;-86
2021/09/19 11:56:36;;;;;;;10.73;5.72;;;26.20;99.90;;;;;;5067748;28;20207;-87
2021/09/19 11:59:02;;;;;;;7.75;5.50;;;26.40;99.90;;;;;;5071437;28;20209;-88
2021/09/19 12:01:28;;;;;;;8.15;5.57;;;26.60;99.90;;;;;;5075293;28;20648;-88
2021/09/19 12:04:03;;;;;;;7.85;5.18;;;26.60;99.90;;;;;;5076473;28;20201;-88
2021/09/19 12:06:29;;;;;;;8.90;5.45;;;26.60;99.90;;;;;;5077270;28;20175;-88
2021/09/19 12:08:55;;;;;;;8.77;5.75;;;26.60;99.90;;;;;;5093459;28;20283;-87
2021/09/19 12:11:36;;;;;;;10.68;5.80;;;26.80;99.90;;;;;;5078204;28;20187;-87
2021/09/19 12:14:09;;;;;;;10.80;5.88;;;26.60;99.90;;;;;;5070590;28;20252;-87
2021/09/19 12:16:36;;;;;;;8.90;5.95;;;26.20;99.90;;;;;;5071083;28;20202;-87
2021/09/19 12:19:02;;;;;;;9.63;6.10;;;26.10;99.90;;;;;;5076180;28;20245;-88
2021/09/19 12:21:28;;;;;;;9.02;6.07;;;26.20;99.90;;;;;;5056021;28;20214;-88
2021/09/19 12:23:57;;;;;;;10.88;6.03;;;26.20;99.90;;;;;;5066900;28;20273;-88
2021/09/19 12:26:31;;;;;;;9.50;5.78;;;26.10;99.90;;;;;;5065679;28;20179;-88
2021/09/19 12:29:05;;;;;;;10.30;6.13;;;26.30;99.90;;;;;;5069162;28;20289;-88
2021/09/19 12:31:42;;;;;;;10.68;6.15;;;26.10;99.90;;;;;;5055378;28;20187;-87
2021/09/19 12:34:10;;;;;;;9.73;6.20;;;26.10;99.90;;;;;;5071042;28;20190;-88
2021/09/19 12:36:54;;;;;;;8.75;5.50;;;26.00;99.90;;;;;;5072156;28;20788;-87